Time;durP1;ratioP1;P1;durP2;ratioP2;P2;SDS_P1;SDS_P2;PMS_P1;PMS_P2;Temp;Humidity;BMP_temperature;BMP_pressure;BME280_temperature;BME280_humidity;BME280_pressure;Samples;Min_cycle;Max_cycle;Signal;HPM_P1;HPM_P2
2022/10/23 00:01:44;;;;;;;4.28;3.10;;;9.90;99.90;;;;;;5099142;28;20040;-50
2022/10/23 00:04:11;;;;;;;5.13;3.20;;;9.90;99.90;;;;;;5110737;28;20078;-50
2022/10/23 00:06:38;;;;;;;8.05;3.45;;;9.90;99.90;;;;;;5113868;28;20480;-50
2022/10/23 00:09:07;;;;;;;5.30;3.55;;;9.90;99.90;;;;;;5109627;28;20110;-51
2022/10/23 00:11:34;;;;;;;4.65;3.30;;;9.90;99.90;;;;;;5111359;28;20059;-53
2022/10/23 00:14:03;;;;;;;5.30;3.22;;;9.90;99.90;;;;;;5112615;28;20035;-49
2022/10/23 00:16:30;;;;;;;6.45;3.25;;;9.90;99.90;;;;;;5111711;28;20036;-49
2022/10/23 00:18:57;;;;;;;5.07;3.17;;;10.00;99.90;;;;;;5112814;28;20135;-49
2022/10/23 00:21:24;;;;;;;6.25;3.42;;;10.00;99.90;;;;;;5113156;28;20092;-50
2022/10/23 00:23:52;;;;;;;5.10;3.17;;;9.90;99.90;;;;;;5113062;28;20365;-50
2022/10/23 00:26:19;;;;;;;3.63;2.80;;;9.90;99.90;;;;;;5108650;28;20071;-48
2022/10/23 00:28:48;;;;;;;5.45;3.00;;;9.90;99.90;;;;;;5095056;28;20063;-49
2022/10/23 00:31:16;;;;;;;4.15;2.58;;;9.80;99.90;;;;;;5095090;28;20484;-50
2022/10/23 00:33:43;;;;;;;6.63;2.72;;;9.80;99.90;;;;;;5089248;28;20076;-53
2022/10/23 00:36:11;;;;;;;;;;;9.70;99.90;;;;;;5102764;28;20040;-49
2022/10/23 00:38:38;;;;;;;4.22;2.60;;;9.80;99.90;;;;;;5113211;28;19924;-49
2022/10/23 00:41:05;;;;;;;;;;;9.70;99.90;;;;;;5088719;28;20040;-48
2022/10/23 00:43:33;;;;;;;5.30;2.63;;;9.70;99.90;;;;;;5105625;28;19920;-51
2022/10/23 00:46:00;;;;;;;3.88;2.60;;;9.70;99.90;;;;;;5091308;28;20074;-49
2022/10/23 00:48:28;;;;;;;3.47;2.45;;;9.70;99.90;;;;;;5109681;28;20044;-49
2022/10/23 00:50:55;;;;;;;7.30;2.65;;;9.70;99.90;;;;;;5080383;28;20411;-48
2022/10/23 00:53:24;;;;;;;3.22;2.40;;;9.70;99.90;;;;;;5091336;28;20127;-49
2022/10/23 00:55:53;;;;;;;4.43;2.60;;;9.70;99.90;;;;;;5078575;28;20035;-50
2022/10/23 00:58:20;;;;;;;3.50;2.30;;;9.70;99.90;;;;;;5088251;28;20048;-49
2022/10/23 01:00:55;;;;;;;3.42;2.20;;;9.70;99.90;;;;;;5092500;28;20040;-49
2022/10/23 01:03:26;;;;;;;4.38;2.60;;;9.70;99.90;;;;;;5112177;28;20051;-49
2022/10/23 01:06:36;;;;;;;2.78;2.10;;;9.80;99.90;;;;;;5093490;28;20071;-50
2022/10/23 01:09:17;;;;;;;7.82;2.60;;;9.70;99.90;;;;;;5111590;28;20561;-49
2022/10/23 01:11:58;;;;;;;5.13;2.40;;;9.70;99.90;;;;;;5091081;28;20085;-50
2022/10/23 01:14:36;;;;;;;3.30;2.20;;;9.60;99.90;;;;;;5090098;28;20048;-52
2022/10/23 01:17:12;;;;;;;6.80;2.33;;;9.70;99.90;;;;;;5091395;28;20036;-51
2022/10/23 01:20:09;;;;;;;3.53;2.40;;;9.60;99.90;;;;;;5092549;28;20047;-49
2022/10/23 01:23:04;;;;;;;2.38;1.83;;;9.50;99.90;;;;;;5088394;28;20047;-50
2022/10/23 01:25:43;;;;;;;6.57;2.45;;;9.50;99.90;;;;;;5090878;28;20051;-50
2022/10/23 01:28:15;;;;;;;4.78;2.70;;;9.50;99.90;;;;;;5100915;28;20051;-50
2022/10/23 01:30:43;;;;;;;5.32;2.70;;;9.60;99.90;;;;;;5111537;28;20047;-49
2022/10/23 01:33:22;;;;;;;3.38;2.67;;;9.50;99.90;;;;;;5094119;28;20040;-50
2022/10/23 01:35:59;;;;;;;6.10;3.25;;;9.50;99.90;;;;;;5087876;28;20507;-49
2022/10/23 01:38:39;;;;;;;5.25;2.47;;;9.50;99.90;;;;;;5093623;28;20063;-53
2022/10/23 01:41:42;;;;;;;6.38;2.95;;;9.50;99.90;;;;;;5090353;28;20688;-48
2022/10/23 01:44:46;;;;;;;5.22;3.35;;;9.50;99.90;;;;;;5086971;28;20059;-51
2022/10/23 01:47:17;;;;;;;5.75;3.13;;;9.40;99.90;;;;;;5088072;28;20044;-49
2022/10/23 01:49:55;;;;;;;4.53;2.95;;;9.40;99.90;;;;;;5091911;28;20101;-49
2022/10/23 01:52:22;;;;;;;5.88;2.67;;;9.40;99.90;;;;;;5074879;28;20043;-51
2022/10/23 01:54:54;;;;;;;4.72;2.40;;;9.40;99.90;;;;;;5071424;28;20172;-51
2022/10/23 01:57:22;;;;;;;2.92;2.42;;;9.40;99.90;;;;;;5083810;28;20404;-49
2022/10/23 01:59:55;;;;;;;2.75;2.05;;;9.40;99.90;;;;;;5081693;28;20044;-49
2022/10/23 02:02:23;;;;;;;5.18;1.75;;;9.40;99.90;;;;;;5085978;28;20043;-50
2022/10/23 02:04:57;;;;;;;2.30;1.63;;;9.40;99.90;;;;;;5113166;22;20051;-47
2022/10/23 02:07:25;;;;;;;2.15;1.30;;;9.40;99.90;;;;;;5086114;28;20043;-49
2022/10/23 02:09:52;;;;;;;5.43;1.17;;;9.40;99.90;;;;;;5105277;28;20035;-47
2022/10/23 02:12:36;;;;;;;1.60;1.10;;;9.40;99.90;;;;;;5076352;28;20040;-47
2022/10/23 02:15:23;;;;;;;3.15;1.25;;;9.30;99.90;;;;;;5111204;28;20157;-51
2022/10/23 02:18:14;;;;;;;2.42;1.10;;;9.30;99.90;;;;;;5111686;28;20050;-47
2022/10/23 02:20:56;;;;;;;2.15;1.40;;;9.30;99.90;;;;;;5075425;28;20044;-46
2022/10/23 02:23:49;;;;;;;3.70;1.00;;;9.20;99.90;;;;;;5072845;28;20042;-48
2022/10/23 02:26:34;;;;;;;3.50;1.27;;;9.30;99.90;;;;;;5089960;28;20044;-47
2022/10/23 02:29:16;;;;;;;1.85;1.20;;;9.20;99.90;;;;;;5072970;28;20127;-49
2022/10/23 02:31:45;;;;;;;2.17;1.20;;;9.10;99.90;;;;;;5080492;28;20062;-49
2022/10/23 02:34:12;;;;;;;2.15;1.48;;;9.10;99.90;;;;;;5108152;28;20559;-46
2022/10/23 02:36:39;;;;;;;2.00;1.10;;;9.10;99.90;;;;;;5090827;28;20055;-46
2022/10/23 02:39:07;;;;;;;1.70;1.10;;;9.20;99.90;;;;;;5072650;28;20047;-47
2022/10/23 02:41:43;;;;;;;3.67;1.40;;;9.10;99.90;;;;;;5071849;28;20067;-47
2022/10/23 02:44:36;;;;;;;1.95;1.13;;;9.20;99.90;;;;;;5090525;28;20155;-47
2022/10/23 02:47:09;;;;;;;2.00;1.25;;;9.10;99.90;;;;;;5070534;28;20090;-47
2022/10/23 02:50:06;;;;;;;7.55;1.38;;;9.10;99.90;;;;;;5073082;28;20094;-47
2022/10/23 02:52:53;;;;;;;3.75;1.58;;;9.10;99.90;;;;;;5072712;28;20732;-49
2022/10/23 02:55:45;;;;;;;4.88;1.67;;;9.10;99.90;;;;;;5053234;28;20041;-49
2022/10/23 02:58:30;;;;;;;2.42;1.35;;;9.10;99.90;;;;;;5090876;28;20044;-48
2022/10/23 03:01:18;;;;;;;2.35;1.40;;;9.10;99.90;;;;;;5072078;28;20048;-46
2022/10/23 03:03:54;;;;;;;2.03;1.50;;;9.10;99.90;;;;;;5072105;28;20523;-47
2022/10/23 03:06:22;;;;;;;4.40;1.42;;;9.10;99.90;;;;;;5080998;28;20503;-47
2022/10/23 03:09:06;;;;;;;2.40;1.38;;;9.10;99.90;;;;;;5082534;28;20051;-47
2022/10/23 03:11:33;;;;;;;3.17;1.15;;;9.20;99.90;;;;;;5065231;28;20032;-48
2022/10/23 03:14:00;;;;;;;2.83;1.75;;;9.20;99.90;;;;;;5055723;28;20555;-46
2022/10/23 03:16:28;;;;;;;3.03;1.00;;;9.20;99.90;;;;;;5056744;28;20102;-48
2022/10/23 03:18:55;;;;;;;3.13;1.27;;;9.20;99.90;;;;;;5068878;28;20036;-47
2022/10/23 03:21:22;;;;;;;1.70;1.30;;;9.20;99.90;;;;;;5074295;28;20247;-47
2022/10/23 03:23:52;;;;;;;1.98;1.10;;;9.10;99.90;;;;;;5075732;28;20169;-46
2022/10/23 03:26:26;;;;;;;6.72;1.42;;;9.10;99.90;;;;;;5076497;28;20052;-48
2022/10/23 03:28:53;;;;;;;2.10;1.40;;;9.10;99.90;;;;;;5094584;28;20073;-48
2022/10/23 03:31:21;;;;;;;2.05;1.30;;;9.10;99.90;;;;;;5073987;28;20051;-46
2022/10/23 03:33:53;;;;;;;1.73;1.17;;;9.20;99.90;;;;;;5092935;28;20036;-49
2022/10/23 03:36:21;;;;;;;2.25;1.23;;;9.10;99.90;;;;;;5076364;28;20047;-47
2022/10/23 03:38:47;;;;;;;5.88;1.33;;;9.20;99.90;;;;;;5093215;28;20097;-49
2022/10/23 03:41:14;;;;;;;6.82;1.40;;;9.10;99.90;;;;;;5075391;28;20402;-47
2022/10/23 03:43:41;;;;;;;2.35;1.00;;;9.10;99.90;;;;;;5092424;28;20507;-47
2022/10/23 03:46:11;;;;;;;2.67;1.40;;;9.10;99.90;;;;;;5074974;28;20043;-48
2022/10/23 03:48:38;;;;;;;5.13;1.35;;;9.10;99.90;;;;;;5088190;28;20085;-46
2022/10/23 03:51:05;;;;;;;1.10;0.98;;;9.10;99.90;;;;;;5086437;28;20041;-46
2022/10/23 03:53:32;;;;;;;2.25;1.35;;;9.10;99.90;;;;;;5067387;28;20036;-47
2022/10/23 03:56:02;;;;;;;2.90;1.60;;;9.10;99.90;;;;;;5074315;28;20590;-46
2022/10/23 03:58:30;;;;;;;3.33;1.38;;;9.10;99.90;;;;;;5093941;28;20036;-48
2022/10/23 04:00:57;;;;;;;5.38;1.90;;;9.00;99.90;;;;;;5075021;28;20044;-47
2022/10/23 04:03:24;;;;;;;3.30;1.60;;;9.00;99.90;;;;;;5092594;28;20048;-46
2022/10/23 04:05:50;;;;;;;2.17;1.40;;;9.00;99.90;;;;;;5074789;28;20059;-49
2022/10/23 04:08:20;;;;;;;2.38;1.42;;;8.90;99.90;;;;;;5075547;28;20504;-46
2022/10/23 04:10:49;;;;;;;3.22;1.60;;;8.90;99.90;;;;;;5059101;28;20075;-46
2022/10/23 04:13:19;;;;;;;2.53;1.48;;;8.90;99.90;;;;;;5074219;28;20496;-47
2022/10/23 04:15:51;;;;;;;1.83;1.42;;;8.90;99.90;;;;;;5075230;28;20063;-49
2022/10/23 04:18:18;;;;;;;2.47;1.52;;;8.80;99.90;;;;;;5091906;28;20049;-50
2022/10/23 04:20:49;;;;;;;4.32;1.50;;;8.80;99.90;;;;;;5091231;28;20048;-51
2022/10/23 04:23:16;;;;;;;2.20;1.20;;;8.90;99.90;;;;;;5072930;28;20558;-47
2022/10/23 04:25:45;;;;;;;2.63;1.35;;;8.90;99.90;;;;;;5074920;28;20051;-48
2022/10/23 04:28:21;;;;;;;3.17;1.15;;;8.90;99.90;;;;;;5075461;28;20048;-48
2022/10/23 04:30:48;;;;;;;2.10;1.20;;;8.90;99.90;;;;;;5080116;28;20400;-48
2022/10/23 04:33:15;;;;;;;2.90;1.58;;;8.90;99.90;;;;;;5105157;28;20445;-48
2022/10/23 04:35:42;;;;;;;1.80;1.20;;;9.00;99.90;;;;;;5084031;28;20044;-47
2022/10/23 04:38:10;;;;;;;1.98;1.20;;;8.90;99.90;;;;;;5075151;28;20412;-49
2022/10/23 04:40:37;;;;;;;2.55;1.27;;;9.00;99.90;;;;;;5074838;28;20142;-47
2022/10/23 04:43:04;;;;;;;1.63;1.25;;;8.90;99.90;;;;;;5070785;28;20044;-46
2022/10/23 04:45:35;;;;;;;1.23;0.98;;;9.00;99.90;;;;;;5083155;28;20113;-48
2022/10/23 04:48:02;;;;;;;1.52;1.02;;;9.00;99.90;;;;;;5074866;28;20072;-48
2022/10/23 04:50:42;;;;;;;2.22;1.33;;;8.90;99.90;;;;;;5075181;28;20068;-46
2022/10/23 04:53:30;;;;;;;1.48;1.10;;;9.00;99.90;;;;;;5060689;28;20054;-47
2022/10/23 04:56:14;;;;;;;1.15;1.05;;;9.00;99.90;;;;;;5074751;28;20127;-47
2022/10/23 04:58:48;;;;;;;1.70;1.17;;;9.00;99.90;;;;;;5074661;28;20036;-49
2022/10/23 05:01:15;;;;;;;;;;;9.00;99.90;;;;;;5071636;28;20044;-47
2022/10/23 05:03:42;;;;;;;4.13;1.38;;;8.90;99.90;;;;;;5074113;28;19970;-47
2022/10/23 05:06:09;;;;;;;0.98;0.80;;;9.00;99.90;;;;;;5074816;28;20055;-47
2022/10/23 05:08:39;;;;;;;2.75;1.05;;;9.00;99.90;;;;;;5096938;28;20551;-47
2022/10/23 05:11:32;;;;;;;4.45;1.25;;;9.00;99.90;;;;;;5064719;28;20538;-46
2022/10/23 05:14:03;;;;;;;2.22;1.13;;;9.00;99.90;;;;;;5094324;28;20043;-47
2022/10/23 05:16:38;;;;;;;2.10;1.25;;;9.10;99.90;;;;;;5094794;28;20044;-48
2022/10/23 05:19:09;;;;;;;1.10;1.00;;;9.00;99.90;;;;;;5084330;28;20105;-49
2022/10/23 05:21:38;;;;;;;3.67;1.10;;;9.00;99.90;;;;;;5059449;28;20036;-48
2022/10/23 05:24:05;;;;;;;1.20;1.10;;;9.00;99.90;;;;;;5066890;28;20036;-49
2022/10/23 05:26:33;;;;;;;1.63;1.30;;;9.00;99.90;;;;;;5071658;28;20044;-47
2022/10/23 05:29:05;;;;;;;1.27;1.10;;;9.00;99.90;;;;;;5077026;28;20040;-48
2022/10/23 05:31:34;;;;;;;3.22;1.40;;;8.90;99.90;;;;;;5054861;28;20551;-47
2022/10/23 05:34:07;;;;;;;6.85;1.65;;;8.80;99.90;;;;;;5073368;28;20044;-48
2022/10/23 05:36:42;;;;;;;2.65;1.50;;;8.80;99.90;;;;;;5089968;28;20278;-50
2022/10/23 05:39:09;;;;;;;4.47;2.03;;;8.80;99.90;;;;;;5070747;28;20043;-48
2022/10/23 05:41:36;;;;;;;2.83;1.60;;;8.90;99.90;;;;;;5072040;28;20498;-49
2022/10/23 05:44:03;;;;;;;3.22;1.77;;;8.80;99.90;;;;;;5073165;28;20122;-47
2022/10/23 05:46:49;;;;;;;2.30;1.67;;;8.80;99.90;;;;;;5078412;28;20132;-49
2022/10/23 05:49:31;;;;;;;3.88;1.77;;;8.80;99.90;;;;;;5073935;28;20105;-47
2022/10/23 05:52:13;;;;;;;2.95;1.88;;;8.70;99.90;;;;;;5091116;28;20051;-47
2022/10/23 05:54:50;;;;;;;3.13;2.28;;;8.80;99.90;;;;;;5073495;28;20478;-50
2022/10/23 05:57:46;;;;;;;6.82;2.30;;;8.80;99.90;;;;;;5079316;28;20113;-50
2022/10/23 06:00:16;;;;;;;5.63;3.08;;;8.90;99.90;;;;;;5069545;28;20508;-48
2022/10/23 06:02:53;;;;;;;4.57;2.63;;;8.90;99.90;;;;;;5068443;28;20094;-47
2022/10/23 06:05:32;;;;;;;2.72;1.80;;;8.90;99.90;;;;;;5061383;28;20445;-49
2022/10/23 06:08:18;;;;;;;4.28;2.20;;;8.90;99.90;;;;;;5086764;28;20408;-47
2022/10/23 06:10:47;;;;;;;4.53;2.63;;;8.90;99.90;;;;;;5073365;28;20054;-47
2022/10/23 06:13:14;;;;;;;4.63;2.60;;;8.90;99.90;;;;;;5071959;28;20581;-47
2022/10/23 06:15:41;;;;;;;4.53;2.42;;;8.90;99.90;;;;;;5072786;28;20063;-49
2022/10/23 06:18:13;;;;;;;3.65;2.30;;;8.90;99.90;;;;;;5073230;28;20085;-50
2022/10/23 06:20:52;;;;;;;6.32;2.03;;;9.00;99.90;;;;;;5090114;28;20048;-49
2022/10/23 06:23:23;;;;;;;7.95;2.08;;;8.90;99.90;;;;;;5079230;28;20075;-47
2022/10/23 06:26:11;;;;;;;2.67;1.52;;;8.90;99.90;;;;;;5091542;28;20113;-47
2022/10/23 06:28:59;;;;;;;4.57;1.75;;;8.90;99.90;;;;;;5090516;28;20052;-47
2022/10/23 06:31:27;;;;;;;5.15;1.65;;;9.00;99.90;;;;;;5072892;28;20113;-50
2022/10/23 06:33:57;;;;;;;3.80;1.67;;;9.00;99.90;;;;;;5072075;28;20468;-47
2022/10/23 06:36:25;;;;;;;2.17;1.45;;;9.00;99.90;;;;;;5073146;28;20078;-47
2022/10/23 06:38:57;;;;;;;1.65;1.35;;;8.90;99.90;;;;;;5073297;28;20048;-49
2022/10/23 06:41:48;;;;;;;2.83;1.80;;;8.80;99.90;;;;;;5088907;28;20047;-47
2022/10/23 06:44:35;;;;;;;3.08;1.80;;;8.90;99.90;;;;;;5085183;28;20066;-46
2022/10/23 06:47:09;;;;;;;1.95;1.55;;;9.00;99.90;;;;;;5075892;28;20411;-48
2022/10/23 06:50:14;;;;;;;7.78;3.00;;;9.00;99.90;;;;;;5092699;28;20515;-48
2022/10/23 06:52:43;;;;;;;4.45;2.70;;;9.10;99.90;;;;;;5065008;28;20048;-49
2022/10/23 06:55:17;;;;;;;4.90;2.92;;;9.10;99.90;;;;;;5082494;28;20097;-47
2022/10/23 06:57:45;;;;;;;5.72;2.00;;;9.20;99.90;;;;;;5086311;28;20047;-46
2022/10/23 07:00:12;;;;;;;;;;;9.20;99.90;;;;;;5072611;28;20032;-50
2022/10/23 07:02:48;;;;;;;5.13;2.75;;;9.30;99.90;;;;;;5073533;28;19924;-50
2022/10/23 07:05:16;;;;;;;8.60;2.10;;;9.30;99.90;;;;;;5073470;28;20044;-47
2022/10/23 07:07:43;;;;;;;3.95;2.13;;;9.40;99.90;;;;;;5076431;28;20592;-47
2022/10/23 07:10:12;;;;;;;2.38;1.80;;;9.50;99.90;;;;;;5093666;28;20044;-49
2022/10/23 07:12:49;;;;;;;4.07;1.70;;;9.60;99.90;;;;;;5076406;28;20123;-47
2022/10/23 07:15:35;;;;;;;3.30;1.85;;;9.60;99.90;;;;;;5101894;28;20569;-47
2022/10/23 07:18:06;;;;;;;3.58;2.47;;;9.60;99.90;;;;;;5093244;28;20067;-47
2022/10/23 07:20:57;;;;;;;8.65;2.50;;;9.70;99.90;;;;;;5092301;28;20478;-47
2022/10/23 07:23:24;;;;;;;6.13;2.53;;;9.80;99.90;;;;;;5076179;28;20048;-49
2022/10/23 07:25:51;;;;;;;7.22;2.22;;;9.80;99.90;;;;;;5075801;28;20135;-47
2022/10/23 07:28:21;;;;;;;4.65;2.45;;;9.90;99.90;;;;;;5076178;28;20051;-47
2022/10/23 07:30:58;;;;;;;3.63;1.80;;;10.00;99.90;;;;;;5077372;28;20051;-49
2022/10/23 07:33:40;;;;;;;3.65;1.90;;;10.10;99.90;;;;;;5065128;28;20047;-49
2022/10/23 07:36:14;;;;;;;2.65;1.75;;;10.20;99.90;;;;;;5072191;28;20450;-46
2022/10/23 07:38:41;;;;;;;4.07;1.73;;;10.30;99.90;;;;;;5076762;28;20096;-47
2022/10/23 07:41:09;;;;;;;4.90;1.40;;;10.50;99.90;;;;;;5078680;28;20458;-51
2022/10/23 07:43:38;;;;;;;4.80;1.30;;;10.70;99.90;;;;;;5074223;28;20052;-47
2022/10/23 07:46:07;;;;;;;2.47;1.20;;;10.90;99.90;;;;;;5072329;28;20131;-52
2022/10/23 07:48:38;;;;;;;1.92;1.50;;;11.10;99.90;;;;;;5055519;28;20049;-46
2022/10/23 07:51:14;;;;;;;4.30;1.13;;;11.30;99.90;;;;;;5072215;28;20045;-51
2022/10/23 07:53:44;;;;;;;2.30;0.90;;;11.40;99.90;;;;;;5056477;28;20032;-52
2022/10/23 07:56:31;;;;;;;3.53;0.93;;;11.60;99.90;;;;;;5034154;28;20493;-47
2022/10/23 07:59:13;;;;;;;6.70;1.70;;;11.70;99.90;;;;;;5073798;28;20194;-46
2022/10/23 08:01:47;;;;;;;2.22;1.20;;;12.00;99.90;;;;;;5073120;28;20036;-53
2022/10/23 08:04:29;;;;;;;3.20;1.25;;;12.20;99.90;;;;;;5091237;22;20086;-55
2022/10/23 08:07:00;;;;;;;3.28;1.42;;;12.20;99.90;;;;;;5090726;28;20092;-50
2022/10/23 08:09:34;;;;;;;2.65;1.00;;;12.20;99.90;;;;;;5103931;28;20127;-53
2022/10/23 08:12:02;;;;;;;4.03;1.17;;;12.30;99.90;;;;;;5091828;28;20554;-51
2022/10/23 08:14:29;;;;;;;3.08;1.00;;;12.30;99.90;;;;;;5105728;28;20090;-50
2022/10/23 08:16:56;;;;;;;2.10;1.25;;;12.50;99.90;;;;;;5075518;28;20036;-49
2022/10/23 08:19:49;;;;;;;2.65;1.48;;;12.60;99.90;;;;;;5088167;28;20098;-52
2022/10/23 08:22:17;;;;;;;2.28;1.40;;;12.60;99.90;;;;;;5074445;28;20050;-50
2022/10/23 08:24:44;;;;;;;1.77;1.20;;;12.40;99.90;;;;;;5072601;28;20134;-50
2022/10/23 08:27:11;;;;;;;3.20;1.63;;;12.30;99.90;;;;;;5075074;28;20040;-53
2022/10/23 08:29:43;;;;;;;1.75;1.30;;;12.40;99.90;;;;;;5073875;28;20134;-51
2022/10/23 08:32:10;;;;;;;12.38;1.48;;;12.60;99.90;;;;;;5093535;28;20450;-52
2022/10/23 08:34:57;;;;;;;2.90;1.27;;;12.80;99.90;;;;;;5091032;28;20048;-54
2022/10/23 08:37:26;;;;;;;2.08;1.20;;;12.80;99.90;;;;;;5073409;28;21368;-53
2022/10/23 08:39:54;;;;;;;4.03;1.48;;;12.90;99.90;;;;;;5075023;28;20492;-55
2022/10/23 08:42:46;;;;;;;3.03;1.05;;;12.90;99.90;;;;;;5092368;28;20126;-51
2022/10/23 08:45:27;;;;;;;0.82;0.82;;;13.20;99.90;;;;;;5074480;28;20515;-51
2022/10/23 08:48:30;;;;;;;1.55;0.93;;;13.50;99.90;;;;;;5070552;28;20093;-52
2022/10/23 08:51:39;;;;;;;1.85;1.00;;;13.70;99.90;;;;;;5069714;28;20409;-53
2022/10/23 08:54:12;;;;;;;4.40;1.45;;;14.00;99.90;;;;;;5081803;28;20032;-51
2022/10/23 08:56:51;;;;;;;1.67;1.05;;;14.00;99.90;;;;;;5085400;28;20078;-53
2022/10/23 08:59:27;;;;;;;2.22;1.45;;;13.80;99.90;;;;;;5091526;28;20511;-53
2022/10/23 09:02:04;;;;;;;1.60;1.02;;;13.80;99.90;;;;;;5092597;28;20071;-51
2022/10/23 09:04:31;;;;;;;2.95;1.10;;;13.80;99.90;;;;;;5090642;28;20405;-51
2022/10/23 09:07:07;;;;;;;3.03;0.90;;;13.60;99.90;;;;;;5074618;28;20123;-51
2022/10/23 09:09:53;;;;;;;1.60;0.85;;;13.60;99.90;;;;;;5088336;28;20036;-51
2022/10/23 09:12:22;;;;;;;1.25;0.82;;;13.60;99.90;;;;;;5092426;28;20496;-49
2022/10/23 09:15:20;;;;;;;1.98;1.13;;;13.50;99.90;;;;;;5092008;28;20515;-54
2022/10/23 09:17:59;;;;;;;0.87;0.60;;;13.50;99.90;;;;;;5090953;28;20047;-50
2022/10/23 09:20:33;;;;;;;1.17;0.77;;;13.50;99.90;;;;;;5092129;28;20528;-49
2022/10/23 09:23:21;;;;;;;1.30;0.60;;;13.80;99.90;;;;;;5074037;28;20044;-51
2022/10/23 09:25:54;;;;;;;0.80;0.60;;;13.90;99.90;;;;;;5091334;28;20066;-55
2022/10/23 09:28:24;;;;;;;1.27;0.90;;;14.00;99.90;;;;;;5091699;28;20044;-52
2022/10/23 09:30:52;;;;;;;4.43;0.65;;;14.00;99.90;;;;;;5092301;28;20086;-55
2022/10/23 09:33:22;;;;;;;2.53;0.70;;;14.10;99.90;;;;;;5091830;28;20051;-54
2022/10/23 09:35:53;;;;;;;1.08;0.60;;;14.30;99.90;;;;;;5091323;28;20473;-50
2022/10/23 09:38:36;;;;;;;0.65;0.30;;;14.40;99.90;;;;;;5087473;28;20032;-52
2022/10/23 09:41:26;;;;;;;1.02;0.55;;;14.40;99.90;;;;;;5092027;28;20519;-52
2022/10/23 09:44:06;;;;;;;2.63;0.60;;;14.40;99.90;;;;;;5091456;28;20063;-53
2022/10/23 09:46:40;;;;;;;0.90;0.80;;;14.50;99.90;;;;;;5068529;28;20040;-51
2022/10/23 09:49:22;;;;;;;1.40;0.70;;;14.60;99.90;;;;;;5091887;28;20496;-52
2022/10/23 09:52:01;;;;;;;1.65;0.70;;;14.70;99.90;;;;;;5091742;28;20078;-53
2022/10/23 09:54:35;;;;;;;2.42;1.00;;;14.80;99.90;;;;;;5090302;28;20051;-55
2022/10/23 09:57:37;;;;;;;1.08;0.77;;;14.70;99.90;;;;;;5090376;28;20097;-53
2022/10/23 10:00:17;;;;;;;2.80;1.10;;;14.90;99.90;;;;;;5087062;28;20039;-50
2022/10/23 10:02:58;;;;;;;2.30;1.15;;;15.10;99.90;;;;;;5087687;28;20075;-51
2022/10/23 10:05:40;;;;;;;3.30;1.00;;;15.20;99.90;;;;;;5052923;28;20040;-53
2022/10/23 10:08:48;;;;;;;1.38;0.90;;;15.40;99.90;;;;;;5071451;28;20052;-53
2022/10/23 10:11:23;;;;;;;1.63;1.05;;;15.40;99.90;;;;;;5087301;28;20039;-52
2022/10/23 10:13:57;;;;;;;1.77;1.00;;;15.40;99.90;;;;;;5081635;28;20115;-50
2022/10/23 10:16:47;;;;;;;1.95;0.90;;;15.40;99.90;;;;;;5082335;28;20040;-51
2022/10/23 10:19:57;;;;;;;1.27;0.80;;;15.50;99.90;;;;;;5063746;28;20408;-51
2022/10/23 10:22:35;;;;;;;3.33;0.93;;;15.40;99.90;;;;;;5080071;28;20128;-53
2022/10/23 10:25:13;;;;;;;2.47;1.10;;;15.50;99.90;;;;;;5082418;28;20762;-50
2022/10/23 10:27:48;;;;;;;0.93;0.82;;;15.70;99.90;;;;;;5082053;28;20064;-51
2022/10/23 10:30:20;;;;;;;1.45;0.90;;;15.90;99.90;;;;;;5081544;28;20460;-52
2022/10/23 10:32:53;;;;;;;9.30;1.20;;;16.00;99.90;;;;;;5082817;28;20093;-52
2022/10/23 10:35:41;;;;;;;1.65;1.00;;;16.10;99.90;;;;;;5087558;28;20484;-51
2022/10/23 10:38:20;;;;;;;1.40;0.90;;;16.20;99.90;;;;;;5089588;28;20102;-51
2022/10/23 10:40:56;;;;;;;1.67;1.10;;;16.20;99.90;;;;;;5089548;28;20063;-51
2022/10/23 10:44:05;;;;;;;1.98;0.93;;;16.40;99.90;;;;;;5087874;28;20097;-53
2022/10/23 10:46:38;;;;;;;1.60;1.08;;;16.40;99.90;;;;;;5087805;28;20093;-52
2022/10/23 10:49:34;;;;;;;0.60;0.60;;;16.40;99.90;;;;;;5072712;28;20560;-54
2022/10/23 10:52:42;;;;;;;1.63;0.77;;;16.20;99.90;;;;;;5068766;28;20052;-51
2022/10/23 10:55:27;;;;;;;1.27;0.80;;;16.30;99.90;;;;;;5084590;28;20403;-53
2022/10/23 10:58:15;;;;;;;3.80;0.80;;;16.40;99.90;;;;;;5090725;28;20036;-53
2022/10/23 11:00:45;;;;;;;1.73;1.00;;;16.20;99.90;;;;;;5090150;28;20044;-54
2022/10/23 11:03:22;;;;;;;0.95;0.70;;;16.20;99.90;;;;;;5090981;28;20063;-54
2022/10/23 11:05:50;;;;;;;1.57;0.83;;;16.30;99.90;;;;;;5087102;28;20090;-54
2022/10/23 11:08:21;;;;;;;1.40;0.98;;;16.30;99.90;;;;;;5091295;28;20097;-53
2022/10/23 11:10:53;;;;;;;0.68;0.50;;;16.30;99.90;;;;;;5089652;28;20170;-54
2022/10/23 11:13:36;;;;;;;1.08;0.57;;;16.20;99.90;;;;;;5090063;28;20079;-52
2022/10/23 11:16:18;;;;;;;1.42;0.68;;;16.20;99.90;;;;;;5090290;28;20093;-53
2022/10/23 11:19:08;;;;;;;1.27;0.80;;;16.20;99.90;;;;;;5090316;28;20650;-53
2022/10/23 11:21:46;;;;;;;1.23;0.73;;;16.20;99.90;;;;;;5076188;28;20094;-52
2022/10/23 11:24:28;;;;;;;1.17;0.68;;;16.30;99.90;;;;;;5090740;28;20481;-55
2022/10/23 11:27:35;;;;;;;2.90;1.20;;;16.40;99.90;;;;;;5089824;28;20493;-53
2022/10/23 11:30:40;;;;;;;3.60;1.15;;;16.60;99.90;;;;;;5090359;28;20040;-50
2022/10/23 11:33:29;;;;;;;1.08;0.80;;;16.90;99.90;;;;;;5094248;28;20072;-53
2022/10/23 11:36:15;;;;;;;2.42;0.90;;;17.20;99.90;;;;;;5089365;28;20044;-53
2022/10/23 11:38:48;;;;;;;3.03;1.00;;;17.20;99.90;;;;;;5056546;28;20131;-53
2022/10/23 11:41:32;;;;;;;1.00;0.90;;;17.20;99.90;;;;;;5074339;28;20551;-53
2022/10/23 11:44:02;;;;;;;1.33;0.70;;;17.20;99.90;;;;;;5090181;28;20450;-55
2022/10/23 11:46:37;;;;;;;2.72;0.95;;;17.30;99.90;;;;;;5094230;28;20043;-50
2022/10/23 11:49:18;;;;;;;2.10;0.60;;;17.40;99.90;;;;;;5094838;28;20048;-54
2022/10/23 11:51:45;;;;;;;0.70;0.60;;;17.50;99.90;;;;;;5093203;28;20040;-51
2022/10/23 11:54:23;;;;;;;1.67;0.60;;;17.70;99.90;;;;;;5093857;28;20481;-54
2022/10/23 11:57:09;;;;;;;3.10;0.60;;;17.70;99.90;;;;;;5093142;28;20030;-52
2022/10/23 11:59:48;;;;;;;1.42;0.73;;;17.80;99.90;;;;;;5093646;28;20036;-55
2022/10/23 12:02:49;;;;;;;1.23;0.80;;;17.90;99.90;;;;;;5079218;28;20055;-51
2022/10/23 12:05:35;;;;;;;3.03;0.70;;;18.00;99.90;;;;;;5074295;28;20572;-54
2022/10/23 12:08:06;;;;;;;1.23;0.80;;;18.00;99.90;;;;;;5083791;28;20060;-50
2022/10/23 12:10:42;;;;;;;2.83;1.05;;;17.90;99.90;;;;;;5074838;28;20070;-51
2022/10/23 12:13:37;;;;;;;4.13;1.80;;;18.00;99.90;;;;;;5081400;28;20094;-51
2022/10/23 12:16:06;;;;;;;1.15;0.80;;;17.90;99.90;;;;;;5081847;28;20052;-53
2022/10/23 12:18:48;;;;;;;1.00;0.73;;;17.90;99.90;;;;;;5079232;28;20044;-51
2022/10/23 12:21:19;;;;;;;0.65;0.60;;;18.00;99.90;;;;;;5085476;28;20044;-54
2022/10/23 12:24:21;;;;;;;1.35;0.70;;;18.00;99.90;;;;;;5079832;28;20121;-55
2022/10/23 12:27:00;;;;;;;0.70;0.70;;;17.90;99.90;;;;;;5085639;28;20442;-53
2022/10/23 12:30:00;;;;;;;4.13;0.98;;;17.80;99.90;;;;;;5083959;28;20062;-54
2022/10/23 12:32:57;;;;;;;1.23;0.70;;;17.80;99.90;;;;;;5077904;28;20451;-52
2022/10/23 12:35:41;;;;;;;3.40;0.80;;;17.90;99.90;;;;;;5091635;28;20094;-52
2022/10/23 12:38:19;;;;;;;1.77;1.30;;;17.80;99.90;;;;;;5090067;28;20089;-51
2022/10/23 12:40:51;;;;;;;0.88;0.80;;;17.70;99.90;;;;;;5087115;28;20123;-53
2022/10/23 12:43:31;;;;;;;1.88;0.80;;;17.70;99.90;;;;;;5090389;28;20044;-53
2022/10/23 12:46:34;;;;;;;2.28;0.70;;;17.60;99.90;;;;;;5090687;28;20491;-51
2022/10/23 12:49:11;;;;;;;1.75;0.90;;;17.50;99.90;;;;;;5072885;28;20404;-51
2022/10/23 12:51:38;;;;;;;1.20;0.90;;;17.40;99.90;;;;;;5091592;28;20043;-52
2022/10/23 12:54:14;;;;;;;2.50;1.05;;;17.30;99.90;;;;;;5088804;28;20044;-51
2022/10/23 12:56:43;;;;;;;1.70;0.90;;;17.20;99.90;;;;;;5088911;28;20048;-54
2022/10/23 12:59:15;;;;;;;2.33;0.75;;;17.20;99.90;;;;;;5091171;28;20090;-53
2022/10/23 13:01:42;;;;;;;1.45;1.10;;;17.30;99.90;;;;;;5088739;28;20036;-52
2022/10/23 13:04:09;;;;;;;0.95;0.73;;;17.40;99.90;;;;;;5088413;28;20400;-53
2022/10/23 13:06:38;;;;;;;2.55;0.70;;;17.60;99.90;;;;;;5072313;28;20456;-53
2022/10/23 13:09:14;;;;;;;8.27;0.85;;;17.60;99.90;;;;;;5073470;28;20097;-50
2022/10/23 13:11:51;;;;;;;4.95;1.00;;;17.70;99.90;;;;;;5072185;28;20515;-53
2022/10/23 13:14:36;;;;;;;0.60;0.60;;;17.70;99.90;;;;;;5068771;28;20488;-53
2022/10/23 13:17:10;;;;;;;2.85;0.70;;;17.70;99.90;;;;;;5090267;28;20098;-52
2022/10/23 13:19:37;;;;;;;1.60;0.60;;;17.70;99.90;;;;;;5088859;28;20085;-54
2022/10/23 13:22:17;;;;;;;1.65;0.98;;;17.70;99.90;;;;;;5088681;28;20074;-55
2022/10/23 13:24:44;;;;;;;1.05;0.70;;;17.80;99.90;;;;;;5090067;28;20481;-51
2022/10/23 13:27:31;;;;;;;2.20;0.80;;;17.90;99.90;;;;;;5089304;28;20081;-51
2022/10/23 13:29:58;;;;;;;1.83;0.57;;;18.00;99.90;;;;;;5088218;28;20529;-53
2022/10/23 13:32:28;;;;;;;;;;;18.00;99.90;;;;;;5088865;28;20043;-51
2022/10/23 13:35:02;;;;;;;4.05;1.35;;;18.10;99.90;;;;;;5090773;28;20011;-51
2022/10/23 13:37:47;;;;;;;4.07;0.90;;;18.20;99.90;;;;;;5082097;28;20374;-53
2022/10/23 13:40:22;;;;;;;;;;;18.20;99.90;;;;;;5083592;28;20039;-51